createdAt,value
2024-05-09T00:00:03.000Z,279.86
2024-05-09T00:01:43.000Z,279.86
2024-05-09T00:03:50.000Z,279.85
2024-05-09T00:05:16.000Z,279.86
2024-05-09T00:07:22.000Z,279.84
2024-05-09T00:08:49.000Z,279.84
2024-05-09T00:10:55.000Z,279.81
2024-05-09T00:12:22.000Z,279.77
2024-05-09T00:14:28.000Z,279.76
2024-05-09T00:15:54.000Z,279.73
2024-05-09T00:18:01.000Z,279.72
2024-05-09T00:19:27.000Z,279.69
2024-05-09T00:21:34.000Z,279.67
2024-05-09T00:24:19.000Z,279.66
2024-05-09T00:25:45.000Z,279.63
2024-05-09T00:27:52.000Z,279.62
2024-05-09T00:29:18.000Z,279.59
2024-05-09T00:31:25.000Z,279.56
2024-05-09T00:32:51.000Z,279.54
2024-05-09T00:34:58.000Z,279.51
2024-05-09T00:36:24.000Z,279.49
2024-05-09T00:38:30.000Z,279.47
2024-05-09T00:39:57.000Z,279.42
2024-05-09T00:42:06.000Z,279.44
2024-05-09T00:43:33.000Z,279.4
2024-05-09T00:45:39.000Z,279.38
2024-05-09T00:47:06.000Z,279.34
2024-05-09T00:49:12.000Z,279.34
2024-05-09T00:50:39.000Z,279.31
2024-05-09T00:52:46.000Z,279.31
2024-05-09T00:54:12.000Z,279.3
2024-05-09T00:56:18.000Z,279.27
2024-05-09T00:57:45.000Z,279.24
2024-05-09T00:59:51.000Z,279.22
2024-05-09T01:02:36.000Z,279.19
2024-05-09T01:04:03.000Z,279.15
2024-05-09T01:06:09.000Z,279.13
2024-05-09T01:07:36.000Z,279.09
2024-05-09T01:09:42.000Z,279.08
2024-05-09T01:11:09.000Z,279.05
2024-05-09T01:13:15.000Z,279.02
2024-05-09T01:14:42.000Z,278.99
2024-05-09T01:16:48.000Z,278.97
2024-05-09T01:18:15.000Z,278.93
2024-05-09T01:20:21.000Z,278.92
2024-05-09T01:21:59.000Z,278.89
2024-05-09T01:24:05.000Z,278.88
2024-05-09T01:25:32.000Z,278.88
2024-05-09T01:27:38.000Z,278.86
2024-05-09T01:29:05.000Z,278.85
2024-05-09T01:31:11.000Z,278.82
2024-05-09T01:32:38.000Z,278.82
2024-05-09T01:34:44.000Z,278.78
2024-05-09T01:36:11.000Z,278.78
2024-05-09T01:38:17.000Z,278.75
2024-05-09T01:41:03.000Z,278.75
2024-05-09T01:42:29.000Z,278.71
2024-05-09T01:44:35.000Z,278.69
2024-05-09T01:46:02.000Z,278.67
2024-05-09T01:48:08.000Z,278.65
2024-05-09T01:49:35.000Z,278.62
2024-05-09T01:51:41.000Z,278.6
2024-05-09T01:53:08.000Z,278.58
2024-05-09T01:55:14.000Z,278.57
2024-05-09T01:56:41.000Z,278.56
2024-05-09T01:58:47.000Z,278.53
2024-05-09T02:00:13.000Z,278.5
2024-05-09T02:02:35.000Z,278.47
2024-05-09T02:04:02.000Z,278.44
2024-05-09T02:06:08.000Z,278.43
2024-05-09T02:07:35.000Z,278.4
2024-05-09T02:09:41.000Z,278.4
2024-05-09T02:11:08.000Z,278.39
2024-05-09T02:13:14.000Z,278.37
2024-05-09T02:14:41.000Z,278.36
2024-05-09T02:16:47.000Z,278.33
2024-05-09T02:19:32.000Z,278.3
2024-05-09T02:20:59.000Z,278.3
2024-05-09T02:23:05.000Z,278.29
2024-05-09T02:24:32.000Z,278.25
2024-05-09T02:26:38.000Z,278.24
2024-05-09T02:28:05.000Z,278.22
2024-05-09T02:30:11.000Z,278.2
2024-05-09T02:31:55.000Z,278.17
2024-05-09T02:34:01.000Z,278.17
2024-05-09T02:35:28.000Z,278.14
2024-05-09T02:37:34.000Z,278.13
2024-05-09T02:39:01.000Z,278.11
2024-05-09T02:41:07.000Z,278.1
2024-05-09T02:42:34.000Z,278.07
2024-05-09T02:44:40.000Z,278.04
2024-05-09T02:46:06.000Z,278.02
2024-05-09T02:48:13.000Z,278
2024-05-09T02:49:39.000Z,277.97
2024-05-09T02:51:46.000Z,277.93
2024-05-09T02:53:12.000Z,277.91
2024-05-09T02:55:19.000Z,277.86
2024-05-09T02:58:04.000Z,277.79
2024-05-09T02:59:30.000Z,277.72
2024-05-09T03:01:37.000Z,277.71
2024-05-09T03:03:03.000Z,277.65
2024-05-09T03:05:13.000Z,277.63
2024-05-09T03:06:39.000Z,277.61
2024-05-09T03:08:45.000Z,277.59
2024-05-09T03:10:12.000Z,277.56
2024-05-09T03:13:58.000Z,277.59
2024-05-09T03:14:32.000Z,277.56
2024-05-09T03:15:59.000Z,277.59
2024-05-09T03:18:05.000Z,277.55
2024-05-09T03:19:32.000Z,277.53
2024-05-09T03:21:38.000Z,277.55
2024-05-09T03:23:04.000Z,277.55
2024-05-09T03:25:11.000Z,277.53
2024-05-09T03:26:37.000Z,277.53
2024-05-09T03:28:43.000Z,277.53
2024-05-09T03:30:10.000Z,277.53
2024-05-09T03:32:32.000Z,277.52
2024-05-09T03:33:59.000Z,277.52
2024-05-09T03:36:05.000Z,277.53
2024-05-09T03:38:44.000Z,277.53
2024-05-09T03:40:11.000Z,277.52
2024-05-09T03:42:23.000Z,277.52
2024-05-09T03:43:50.000Z,277.51
2024-05-09T03:45:56.000Z,277.49
2024-05-09T03:47:23.000Z,277.48
2024-05-09T03:49:29.000Z,277.48
2024-05-09T03:50:56.000Z,277.46
2024-05-09T03:53:02.000Z,277.46
2024-05-09T03:54:29.000Z,277.46
2024-05-09T03:56:35.000Z,277.45
2024-05-09T03:58:02.000Z,277.45
2024-05-09T04:00:08.000Z,277.41
2024-05-09T04:01:48.000Z,277.4
2024-05-09T04:03:55.000Z,277.38
2024-05-09T04:05:22.000Z,277.37
2024-05-09T04:07:29.000Z,277.36
2024-05-09T04:08:55.000Z,277.36
2024-05-09T04:11:01.000Z,277.36
2024-05-09T04:12:28.000Z,277.36
2024-05-09T04:14:34.000Z,277.36
2024-05-09T04:17:20.000Z,277.37
2024-05-09T04:18:46.000Z,277.38
2024-05-09T04:20:53.000Z,277.38
2024-05-09T04:22:20.000Z,277.41
2024-05-09T04:24:26.000Z,277.43
2024-05-09T04:25:52.000Z,277.43
2024-05-09T04:27:59.000Z,277.46
2024-05-09T04:29:25.000Z,277.48
2024-05-09T04:31:31.000Z,277.51
2024-05-09T04:32:58.000Z,277.53
2024-05-09T04:35:08.000Z,277.56
2024-05-09T04:36:35.000Z,277.61
2024-05-09T04:38:41.000Z,277.65
2024-05-09T04:40:08.000Z,277.71
2024-05-09T04:42:29.000Z,277.78
2024-05-09T04:43:55.000Z,277.85
2024-05-09T04:46:01.000Z,277.93
2024-05-09T04:47:28.000Z,278.02
2024-05-09T04:49:35.000Z,278.09
2024-05-09T04:51:02.000Z,278.16
2024-05-09T04:53:08.000Z,278.25
2024-05-09T04:55:53.000Z,278.36
2024-05-09T04:57:20.000Z,278.44
2024-05-09T04:59:26.000Z,278.51
2024-05-09T05:00:53.000Z,278.57
2024-05-09T05:02:59.000Z,278.62
2024-05-09T05:04:29.000Z,278.67
2024-05-09T05:06:35.000Z,278.74
2024-05-09T05:08:02.000Z,278.78
2024-05-09T05:10:08.000Z,278.85
2024-05-09T05:11:47.000Z,278.9
2024-05-09T05:13:53.000Z,278.99
2024-05-09T05:15:20.000Z,279.08
2024-05-09T05:17:27.000Z,279.17
2024-05-09T05:18:54.000Z,279.3
2024-05-09T05:21:01.000Z,279.38
2024-05-09T05:22:27.000Z,279.49
2024-05-09T05:24:33.000Z,279.62
2024-05-09T05:26:00.000Z,279.72
2024-05-09T05:28:06.000Z,279.82
2024-05-09T05:29:33.000Z,279.93
2024-05-09T05:31:39.000Z,280.02
2024-05-09T05:34:24.000Z,280.12
2024-05-09T05:35:51.000Z,280.18
2024-05-09T05:37:57.000Z,280.24
2024-05-09T05:39:24.000Z,280.3
2024-05-09T05:41:30.000Z,280.34
2024-05-09T05:42:57.000Z,280.37
2024-05-09T05:45:03.000Z,280.38
2024-05-09T05:46:29.000Z,280.38
2024-05-09T05:48:36.000Z,280.4
2024-05-09T05:50:02.000Z,280.46
2024-05-09T05:52:24.000Z,280.5
2024-05-09T05:53:51.000Z,280.54
2024-05-09T05:55:57.000Z,280.59
2024-05-09T05:57:24.000Z,280.65
2024-05-09T05:59:30.000Z,280.69
2024-05-09T06:00:56.000Z,280.76
2024-05-09T06:03:03.000Z,280.86
2024-05-09T06:04:31.000Z,280.96
2024-05-09T06:06:37.000Z,281.05
2024-05-09T06:08:03.000Z,281.18
2024-05-09T06:10:10.000Z,281.3
2024-05-09T06:13:03.000Z,281.48
2024-05-09T06:14:30.000Z,281.61
2024-05-09T06:16:37.000Z,281.72
2024-05-09T06:18:03.000Z,281.81
2024-05-09T06:20:10.000Z,281.88
2024-05-09T06:21:49.000Z,282.02
2024-05-09T06:23:55.000Z,282.12
2024-05-09T06:25:24.000Z,282.21
2024-05-09T06:27:30.000Z,282.3
2024-05-09T06:28:57.000Z,282.41
2024-05-09T06:31:03.000Z,282.49
2024-05-09T06:32:29.000Z,282.6
2024-05-09T06:34:36.000Z,282.63
2024-05-09T06:36:02.000Z,282.78
2024-05-09T06:38:08.000Z,282.91
2024-05-09T06:39:35.000Z,282.99
2024-05-09T06:41:41.000Z,283.06
2024-05-09T06:43:08.000Z,283.16
2024-05-09T06:45:17.000Z,283.29
2024-05-09T06:46:43.000Z,283.38
2024-05-09T06:48:51.000Z,283.45
2024-05-09T06:51:37.000Z,283.57
2024-05-09T06:53:03.000Z,283.65
2024-05-09T06:55:10.000Z,283.68
2024-05-09T06:56:37.000Z,283.76
2024-05-09T06:58:43.000Z,283.86
2024-05-09T07:00:10.000Z,283.91
2024-05-09T07:02:32.000Z,283.98
2024-05-09T07:03:59.000Z,284.05
2024-05-09T07:06:05.000Z,284.16
2024-05-09T07:07:31.000Z,284.23
2024-05-09T07:09:37.000Z,284.3
2024-05-09T07:11:04.000Z,284.38
2024-05-09T07:13:10.000Z,284.45
2024-05-09T07:14:37.000Z,284.58
2024-05-09T07:16:43.000Z,284.7
2024-05-09T07:18:10.000Z,284.78
2024-05-09T07:20:17.000Z,284.91
2024-05-09T07:21:52.000Z,285
2024-05-09T07:23:58.000Z,285.06
2024-05-09T07:25:25.000Z,285.17
2024-05-09T07:27:31.000Z,285.27
2024-05-09T07:30:16.000Z,285.4
2024-05-09T07:31:51.000Z,285.56
2024-05-09T07:33:57.000Z,285.63
2024-05-09T07:35:24.000Z,285.71
2024-05-09T07:37:30.000Z,285.77
2024-05-09T07:38:57.000Z,285.86
2024-05-09T07:41:03.000Z,286
2024-05-09T07:42:30.000Z,286.13
2024-05-09T07:44:36.000Z,286.22
2024-05-09T07:46:03.000Z,286.3
2024-05-09T07:50:25.000Z,286.62
2024-05-09T07:54:48.000Z,286.72
2024-05-09T07:56:54.000Z,286.79
2024-05-09T07:58:21.000Z,286.87
2024-05-09T08:00:27.000Z,286.98
2024-05-09T08:01:53.000Z,287.05
2024-05-09T08:04:00.000Z,287.2
2024-05-09T08:05:26.000Z,287.35
2024-05-09T08:07:33.000Z,287.46
2024-05-09T08:08:59.000Z,287.61
2024-05-09T08:11:14.000Z,287.71
2024-05-09T08:14:00.000Z,287.75
2024-05-09T08:15:27.000Z,287.84
2024-05-09T08:17:33.000Z,287.92
2024-05-09T08:18:59.000Z,287.99
2024-05-09T08:21:06.000Z,288.05
2024-05-09T08:22:32.000Z,288.03
2024-05-09T08:24:39.000Z,288.03
2024-05-09T08:26:05.000Z,288.07
2024-05-09T08:28:11.000Z,288.13
2024-05-09T08:29:38.000Z,288.23
2024-05-09T08:31:44.000Z,288.29
2024-05-09T08:33:11.000Z,288.35
2024-05-09T08:35:18.000Z,288.4
2024-05-09T08:36:44.000Z,288.46
2024-05-09T08:38:52.000Z,288.54
2024-05-09T08:40:18.000Z,288.63
2024-05-09T08:42:33.000Z,288.7
2024-05-09T08:44:00.000Z,288.81
2024-05-09T08:46:06.000Z,288.78
2024-05-09T08:47:33.000Z,288.89
2024-05-09T08:49:39.000Z,288.93
2024-05-09T08:52:25.000Z,288.94
2024-05-09T08:53:51.000Z,288.97
2024-05-09T08:55:58.000Z,289.03
2024-05-09T08:57:24.000Z,289.1
2024-05-09T08:59:31.000Z,289.22
2024-05-09T09:00:57.000Z,289.23
2024-05-09T09:03:04.000Z,289.22
2024-05-09T09:04:30.000Z,289.32
2024-05-09T09:06:37.000Z,289.4
2024-05-09T09:08:03.000Z,289.43
2024-05-09T09:10:09.000Z,289.51
2024-05-09T09:11:49.000Z,289.54
2024-05-09T09:13:55.000Z,289.59
2024-05-09T09:15:22.000Z,289.7
2024-05-09T09:17:28.000Z,289.76
2024-05-09T09:18:55.000Z,289.83
2024-05-09T09:21:01.000Z,289.9
2024-05-09T09:22:28.000Z,289.9
2024-05-09T09:24:34.000Z,289.97
2024-05-09T09:26:01.000Z,290.06
2024-05-09T09:28:07.000Z,290.13
2024-05-09T09:30:52.000Z,290.23
2024-05-09T09:32:19.000Z,290.33
2024-05-09T09:34:26.000Z,290.39
2024-05-09T09:35:52.000Z,290.46
2024-05-09T09:37:59.000Z,290.48
2024-05-09T09:39:25.000Z,290.51
2024-05-09T09:41:32.000Z,290.53
2024-05-09T09:42:58.000Z,290.56
2024-05-09T09:45:05.000Z,290.63
2024-05-09T09:46:31.000Z,290.7
2024-05-09T09:48:37.000Z,290.77
2024-05-09T09:50:04.000Z,290.84
2024-05-09T09:52:18.000Z,290.88
2024-05-09T09:53:44.000Z,290.89
2024-05-09T09:55:50.000Z,290.95
2024-05-09T09:57:17.000Z,291.02
2024-05-09T09:59:23.000Z,291.03
2024-05-09T10:00:49.000Z,291.09
2024-05-09T10:02:56.000Z,291.11
2024-05-09T10:04:23.000Z,291.17
2024-05-09T10:06:29.000Z,291.17
2024-05-09T10:09:15.000Z,291.25
2024-05-09T10:10:41.000Z,291.27
2024-05-09T10:12:48.000Z,291.25
2024-05-09T10:14:14.000Z,291.3
2024-05-09T10:16:21.000Z,291.35
2024-05-09T10:17:47.000Z,291.43
2024-05-09T10:19:54.000Z,291.49
2024-05-09T10:21:27.000Z,291.53
2024-05-09T10:23:33.000Z,291.59
2024-05-09T10:24:59.000Z,291.63
2024-05-09T10:27:06.000Z,291.66
2024-05-09T10:28:32.000Z,291.74
2024-05-09T10:30:38.000Z,291.81
2024-05-09T10:32:07.000Z,291.83
2024-05-09T10:34:14.000Z,291.89
2024-05-09T10:35:41.000Z,291.9
2024-05-09T10:37:47.000Z,291.92
2024-05-09T10:39:13.000Z,291.93
2024-05-09T10:41:20.000Z,292
2024-05-09T10:42:46.000Z,292.08
2024-05-09T10:44:53.000Z,292.12
2024-05-09T10:47:38.000Z,291.99
2024-05-09T10:49:04.000Z,292.01
2024-05-09T10:51:11.000Z,292.09
2024-05-09T10:52:37.000Z,292.12
2024-05-09T10:54:44.000Z,292.19
2024-05-09T10:56:11.000Z,292.3
2024-05-09T10:58:17.000Z,292.29
2024-05-09T10:59:43.000Z,292.41
2024-05-09T11:01:49.000Z,292.5
2024-05-09T11:03:16.000Z,292.47
2024-05-09T11:05:23.000Z,292.46
2024-05-09T11:06:49.000Z,292.55
2024-05-09T11:08:57.000Z,292.62
2024-05-09T11:10:23.000Z,292.64
2024-05-09T11:12:32.000Z,292.71
2024-05-09T11:13:58.000Z,292.73
2024-05-09T11:16:04.000Z,292.8
2024-05-09T11:17:31.000Z,292.87
2024-05-09T11:19:37.000Z,292.9
2024-05-09T11:21:04.000Z,292.96
2024-05-09T11:23:11.000Z,293.01
2024-05-09T11:25:56.000Z,293.13
2024-05-09T11:27:23.000Z,293.15
2024-05-09T11:29:29.000Z,293.23
2024-05-09T11:30:56.000Z,293.19
2024-05-09T11:33:02.000Z,293.19
2024-05-09T11:34:28.000Z,293.24
2024-05-09T11:36:35.000Z,293.37
2024-05-09T11:38:02.000Z,293.47
2024-05-09T11:40:08.000Z,293.55
2024-05-09T11:41:45.000Z,293.5
2024-05-09T11:43:52.000Z,293.51
2024-05-09T11:45:18.000Z,293.48
2024-05-09T11:47:25.000Z,293.57
2024-05-09T11:48:51.000Z,293.67
2024-05-09T11:50:58.000Z,293.7
2024-05-09T11:52:24.000Z,293.8
2024-05-09T11:54:31.000Z,293.91
2024-05-09T11:55:57.000Z,293.99
2024-05-09T11:58:04.000Z,293.94
2024-05-09T11:59:31.000Z,293.99
2024-05-09T12:01:37.000Z,294.03
2024-05-09T12:04:22.000Z,294.09
2024-05-09T12:05:49.000Z,294.19
2024-05-09T12:07:56.000Z,294.28
2024-05-09T12:09:22.000Z,294.44
2024-05-09T12:11:29.000Z,294.56
2024-05-09T12:12:55.000Z,294.66
2024-05-09T12:15:04.000Z,294.66
2024-05-09T12:16:31.000Z,294.73
2024-05-09T12:18:38.000Z,294.78
2024-05-09T12:20:04.000Z,294.86
2024-05-09T12:22:23.000Z,294.91
2024-05-09T12:23:49.000Z,294.98
2024-05-09T12:25:55.000Z,295
2024-05-09T12:27:22.000Z,295.07
2024-05-09T12:29:28.000Z,295.17
2024-05-09T12:30:56.000Z,295.21
2024-05-09T12:33:02.000Z,295.26
2024-05-09T12:34:30.000Z,295.28
2024-05-09T12:36:37.000Z,295.26
2024-05-09T12:38:04.000Z,295.31
2024-05-09T12:40:10.000Z,295.25
2024-05-09T12:43:11.000Z,295.19
2024-05-09T12:44:38.000Z,295.25
2024-05-09T12:46:44.000Z,295.35
2024-05-09T12:48:10.000Z,295.36
2024-05-09T12:50:17.000Z,295.38
2024-05-09T12:51:51.000Z,295.43
2024-05-09T12:53:57.000Z,295.43
2024-05-09T12:55:24.000Z,295.57
2024-05-09T12:57:45.000Z,295.71
2024-05-09T12:59:12.000Z,295.85
2024-05-09T13:01:18.000Z,295.96
2024-05-09T13:02:44.000Z,296.05
2024-05-09T13:04:51.000Z,296.19
2024-05-09T13:06:18.000Z,296.28
2024-05-09T13:08:25.000Z,296.43
2024-05-09T13:09:51.000Z,296.36
2024-05-09T13:11:58.000Z,296.36
2024-05-09T13:13:24.000Z,296.3
2024-05-09T13:15:30.000Z,296.36
2024-05-09T13:16:57.000Z,296.47
2024-05-09T13:19:03.000Z,296.62
2024-05-09T13:21:49.000Z,296.58
2024-05-09T13:23:15.000Z,296.15
2024-05-09T13:25:21.000Z,295.88
2024-05-09T13:26:48.000Z,295.7
2024-05-09T13:28:54.000Z,295.63
2024-05-09T13:30:21.000Z,295.64
2024-05-09T13:32:38.000Z,295.83
2024-05-09T13:34:05.000Z,295.96
2024-05-09T13:36:11.000Z,296.08
2024-05-09T13:37:38.000Z,296.21
2024-05-09T13:39:44.000Z,296.28
2024-05-09T13:41:11.000Z,296.33
2024-05-09T13:43:17.000Z,296.35
2024-05-09T13:44:44.000Z,296.37
2024-05-09T13:46:51.000Z,296.4
2024-05-09T13:48:17.000Z,296.47
2024-05-09T13:50:24.000Z,296.41
2024-05-09T13:51:54.000Z,296.26
2024-05-09T13:54:00.000Z,296.28
2024-05-09T13:55:27.000Z,296.16
2024-05-09T13:57:33.000Z,296.29
2024-05-09T14:00:18.000Z,296.47
2024-05-09T14:02:03.000Z,296.65
2024-05-09T14:04:10.000Z,296.6
2024-05-09T14:05:37.000Z,296.67
2024-05-09T14:07:43.000Z,296.64
2024-05-09T14:09:10.000Z,296.55
2024-05-09T14:11:16.000Z,296.28
2024-05-09T14:12:42.000Z,296.29
2024-05-09T14:14:49.000Z,295.9
2024-05-09T14:16:15.000Z,296.11
2024-05-09T14:18:22.000Z,296.35
2024-05-09T14:19:49.000Z,296.64
2024-05-09T14:21:55.000Z,296.82
2024-05-09T14:23:22.000Z,296.89
2024-05-09T14:25:28.000Z,297.05
2024-05-09T14:27:00.000Z,296.85
2024-05-09T14:29:06.000Z,297
2024-05-09T14:30:32.000Z,297.12
2024-05-09T14:32:40.000Z,297.25
2024-05-09T14:34:06.000Z,297.39
2024-05-09T14:36:13.000Z,297.51
2024-05-09T14:38:58.000Z,297.05
2024-05-09T14:40:25.000Z,296.67
2024-05-09T14:42:40.000Z,296.36
2024-05-09T14:44:07.000Z,296.04
2024-05-09T14:46:13.000Z,295.72
2024-05-09T14:47:40.000Z,295.4
2024-05-09T14:49:46.000Z,295.18
2024-05-09T14:51:13.000Z,295.06
2024-05-09T14:53:19.000Z,295.32
2024-05-09T14:54:46.000Z,295.61
2024-05-09T14:56:58.000Z,295.9
2024-05-09T14:58:24.000Z,296.19
2024-05-09T15:00:31.000Z,296.32
2024-05-09T15:02:04.000Z,296.14
2024-05-09T15:04:10.000Z,295.96
2024-05-09T15:05:37.000Z,296.07
2024-05-09T15:07:44.000Z,296.26
2024-05-09T15:09:11.000Z,296.44
2024-05-09T15:11:17.000Z,296.6
2024-05-09T15:12:43.000Z,296.61
2024-05-09T15:14:50.000Z,296.62
2024-05-09T15:17:35.000Z,296.79
2024-05-09T15:19:01.000Z,297.02
2024-05-09T15:21:08.000Z,297.2
2024-05-09T15:22:34.000Z,297.39
2024-05-09T15:24:40.000Z,297.48
2024-05-09T15:26:07.000Z,297.63
2024-05-09T15:28:13.000Z,297.71
2024-05-09T15:29:41.000Z,297.6
2024-05-09T15:31:47.000Z,297.63
2024-05-09T15:33:14.000Z,297.83
2024-05-09T15:35:20.000Z,297.88
2024-05-09T15:36:47.000Z,297.98
2024-05-09T15:38:53.000Z,297.83
2024-05-09T15:40:20.000Z,297.76
2024-05-09T15:42:37.000Z,297.29
2024-05-09T15:44:03.000Z,296.89
2024-05-09T15:46:09.000Z,296.47
2024-05-09T15:47:36.000Z,296.09
2024-05-09T15:49:43.000Z,295.88
2024-05-09T15:51:09.000Z,295.72
2024-05-09T15:53:16.000Z,295.58
2024-05-09T15:56:01.000Z,295.42
2024-05-09T15:57:27.000Z,295.32
2024-05-09T15:59:34.000Z,295.36
2024-05-09T16:01:01.000Z,295.67
2024-05-09T16:03:07.000Z,295.88
2024-05-09T16:04:34.000Z,296.12
2024-05-09T16:06:40.000Z,296.35
2024-05-09T16:08:07.000Z,296.16
2024-05-09T16:10:13.000Z,296.08
2024-05-09T16:11:49.000Z,296
2024-05-09T16:13:56.000Z,295.86
2024-05-09T16:15:23.000Z,296.05
2024-05-09T16:17:29.000Z,296.22
2024-05-09T16:18:56.000Z,296.37
2024-05-09T16:21:02.000Z,296.41
2024-05-09T16:22:29.000Z,296.6
2024-05-09T16:24:35.000Z,296.69
2024-05-09T16:26:01.000Z,296.78
2024-05-09T16:28:08.000Z,296.61
2024-05-09T16:29:34.000Z,296.19
2024-05-09T16:31:41.000Z,295.89
2024-05-09T16:34:26.000Z,295.74
2024-05-09T16:35:53.000Z,295.96
2024-05-09T16:37:59.000Z,296.11
2024-05-09T16:39:25.000Z,296.33
2024-05-09T16:41:32.000Z,296.48
2024-05-09T16:42:58.000Z,296.48
2024-05-09T16:45:05.000Z,296.5
2024-05-09T16:46:31.000Z,296.65
2024-05-09T16:48:38.000Z,296.78
2024-05-09T16:50:05.000Z,296.79
2024-05-09T16:52:19.000Z,296.71
2024-05-09T16:53:45.000Z,296.72
2024-05-09T16:55:52.000Z,296.8
2024-05-09T16:57:18.000Z,296.89
2024-05-09T16:59:24.000Z,296.87
2024-05-09T17:00:51.000Z,296.92
2024-05-09T17:02:57.000Z,296.98
2024-05-09T17:04:25.000Z,296.92
2024-05-09T17:06:31.000Z,296.95
2024-05-09T17:07:58.000Z,296.95
2024-05-09T17:10:04.000Z,296.83
2024-05-09T17:13:05.000Z,296.36
2024-05-09T17:14:32.000Z,296.41
2024-05-09T17:16:38.000Z,296.44
2024-05-09T17:18:04.000Z,296.41
2024-05-09T17:20:11.000Z,296.28
2024-05-09T17:21:51.000Z,295.98
2024-05-09T17:23:57.000Z,295.74
2024-05-09T17:25:24.000Z,295.46
2024-05-09T17:27:30.000Z,295.31
2024-05-09T17:28:57.000Z,295.11
2024-05-09T17:31:06.000Z,294.96
2024-05-09T17:32:33.000Z,294.8
2024-05-09T17:34:39.000Z,294.67
2024-05-09T17:36:06.000Z,294.57
2024-05-09T17:38:12.000Z,294.45
2024-05-09T17:39:39.000Z,294.34
2024-05-09T17:41:46.000Z,294.23
2024-05-09T17:43:12.000Z,294.13
2024-05-09T17:45:19.000Z,293.99
2024-05-09T17:46:45.000Z,293.87
2024-05-09T17:48:51.000Z,293.8
2024-05-09T17:51:38.000Z,293.6
2024-05-09T17:53:04.000Z,293.47
2024-05-09T17:55:11.000Z,293.34
2024-05-09T17:56:37.000Z,293.2
2024-05-09T17:58:43.000Z,293.04
2024-05-09T18:00:10.000Z,292.89
2024-05-09T18:02:33.000Z,292.68
2024-05-09T18:04:00.000Z,292.46
2024-05-09T18:06:07.000Z,292.26
2024-05-09T18:07:33.000Z,292.16
2024-05-09T18:09:39.000Z,292.01
2024-05-09T18:11:06.000Z,291.81
2024-05-09T18:13:12.000Z,291.71
2024-05-09T18:14:39.000Z,291.62
2024-05-09T18:16:45.000Z,291.41
2024-05-09T18:18:12.000Z,291.25
2024-05-09T18:20:18.000Z,291.13
2024-05-09T18:22:00.000Z,291.03
2024-05-09T18:24:07.000Z,290.91
2024-05-09T18:25:33.000Z,290.7
2024-05-09T18:27:40.000Z,290.65
2024-05-09T18:30:25.000Z,290.53
2024-05-09T18:31:54.000Z,290.41
2024-05-09T18:34:01.000Z,290.31
2024-05-09T18:35:27.000Z,290.13
2024-05-09T18:37:35.000Z,290.02
2024-05-09T18:39:01.000Z,289.84
2024-05-09T18:41:07.000Z,289.72
2024-05-09T18:42:34.000Z,289.62
2024-05-09T18:44:40.000Z,289.49
2024-05-09T18:46:07.000Z,289.3
2024-05-09T18:48:13.000Z,289.18
2024-05-09T18:49:40.000Z,289.05
2024-05-09T18:51:46.000Z,288.96
2024-05-09T18:53:13.000Z,288.77
2024-05-09T18:55:19.000Z,288.61
2024-05-09T18:56:45.000Z,288.51
2024-05-09T18:58:52.000Z,288.4
2024-05-09T19:00:18.000Z,288.29
2024-05-09T19:02:34.000Z,288.14
2024-05-09T19:04:01.000Z,287.98
2024-05-09T19:06:08.000Z,287.85
2024-05-09T19:08:58.000Z,287.67
2024-05-09T19:10:24.000Z,287.56
2024-05-09T19:12:33.000Z,287.5
2024-05-09T19:13:59.000Z,287.38
2024-05-09T19:16:06.000Z,287.3
2024-05-09T19:17:33.000Z,287.26
2024-05-09T19:19:39.000Z,287.21
2024-05-09T19:21:06.000Z,287.11
2024-05-09T19:23:12.000Z,287.02
2024-05-09T19:24:38.000Z,286.93
2024-05-09T19:26:45.000Z,286.87
2024-05-09T19:28:11.000Z,286.76
2024-05-09T19:30:18.000Z,286.66
2024-05-09T19:31:57.000Z,286.56
2024-05-09T19:34:04.000Z,286.48
2024-05-09T19:35:30.000Z,286.4
2024-05-09T19:37:37.000Z,286.33
2024-05-09T19:39:03.000Z,286.22
2024-05-09T19:41:10.000Z,286.18
2024-05-09T19:42:36.000Z,286.07
2024-05-09T19:44:42.000Z,285.99
2024-05-09T19:47:28.000Z,285.89
2024-05-09T19:48:54.000Z,285.81
2024-05-09T19:51:01.000Z,285.75
2024-05-09T19:52:27.000Z,285.7
2024-05-09T19:54:34.000Z,285.63
2024-05-09T19:56:00.000Z,285.54
2024-05-09T19:58:07.000Z,285.52
2024-05-09T19:59:33.000Z,285.4
2024-05-09T20:01:39.000Z,285.33
2024-05-09T20:03:06.000Z,285.24
2024-05-09T20:05:13.000Z,285.2
2024-05-09T20:06:40.000Z,285.15
2024-05-09T20:08:47.000Z,285.11
2024-05-09T20:10:13.000Z,285.06
2024-05-09T20:12:26.000Z,285.05
2024-05-09T20:13:53.000Z,284.99
2024-05-09T20:15:59.000Z,284.95
2024-05-09T20:17:26.000Z,284.88
2024-05-09T20:19:32.000Z,284.82
2024-05-09T20:20:59.000Z,284.77
2024-05-09T20:23:06.000Z,284.73
2024-05-09T20:25:51.000Z,284.61
2024-05-09T20:27:18.000Z,284.54
2024-05-09T20:29:24.000Z,284.45
2024-05-09T20:30:50.000Z,284.34
2024-05-09T20:32:57.000Z,284.23
2024-05-09T20:34:26.000Z,284.22
2024-05-09T20:36:32.000Z,284.16
2024-05-09T20:37:59.000Z,284.11
2024-05-09T20:40:06.000Z,284.07
2024-05-09T20:41:46.000Z,284
2024-05-09T20:43:52.000Z,283.94
2024-05-09T20:45:18.000Z,283.9
2024-05-09T20:47:25.000Z,283.8
2024-05-09T20:48:51.000Z,283.73
2024-05-09T20:50:58.000Z,283.68
2024-05-09T20:52:25.000Z,283.61
2024-05-09T20:54:31.000Z,283.57
2024-05-09T20:55:58.000Z,283.52
2024-05-09T20:58:04.000Z,283.51
2024-05-09T20:59:31.000Z,283.48
2024-05-09T21:01:37.000Z,283.47
2024-05-09T21:04:25.000Z,283.44
2024-05-09T21:05:52.000Z,283.41
2024-05-09T21:07:58.000Z,283.38
2024-05-09T21:09:25.000Z,283.36
2024-05-09T21:11:31.000Z,283.32
2024-05-09T21:12:58.000Z,283.26
2024-05-09T21:15:04.000Z,283.18
2024-05-09T21:16:31.000Z,283.1
2024-05-09T21:18:37.000Z,283.06
2024-05-09T21:20:04.000Z,283
2024-05-09T21:23:50.000Z,282.96
2024-05-09T21:25:23.000Z,282.92
2024-05-09T21:26:50.000Z,282.89
2024-05-09T21:28:56.000Z,282.85
2024-05-09T21:30:22.000Z,282.81
2024-05-09T21:32:39.000Z,282.74
2024-05-09T21:34:06.000Z,282.7
2024-05-09T21:36:13.000Z,282.66
2024-05-09T21:37:39.000Z,282.61
2024-05-09T21:39:45.000Z,282.59
2024-05-09T21:41:12.000Z,282.54
2024-05-09T21:43:18.000Z,282.54
2024-05-09T21:44:45.000Z,282.49
2024-05-09T21:46:51.000Z,282.45
2024-05-09T21:48:18.000Z,282.42
2024-05-09T21:50:24.000Z,282.38
2024-05-09T21:51:59.000Z,282.35
2024-05-09T21:54:05.000Z,282.28
2024-05-09T21:55:32.000Z,282.24
2024-05-09T21:57:38.000Z,282.23
2024-05-09T21:59:05.000Z,282.2
2024-05-09T22:01:11.000Z,282.17
2024-05-09T22:03:56.000Z,282.12
2024-05-09T22:05:23.000Z,282.1
2024-05-09T22:07:30.000Z,282.06
2024-05-09T22:08:56.000Z,282.01
2024-05-09T22:11:02.000Z,281.98
2024-05-09T22:12:29.000Z,281.92
2024-05-09T22:14:35.000Z,281.88
2024-05-09T22:16:02.000Z,281.85
2024-05-09T22:18:08.000Z,281.84
2024-05-09T22:19:35.000Z,281.81
2024-05-09T22:21:41.000Z,281.79
2024-05-09T22:23:08.000Z,281.76
2024-05-09T22:25:14.000Z,281.72
2024-05-09T22:26:41.000Z,281.73
2024-05-09T22:28:48.000Z,281.72
2024-05-09T22:30:14.000Z,281.69
2024-05-09T22:32:34.000Z,281.68
2024-05-09T22:34:01.000Z,281.63
2024-05-09T22:36:07.000Z,281.61
2024-05-09T22:37:34.000Z,281.56
2024-05-09T22:39:40.000Z,281.51
2024-05-09T22:42:25.000Z,281.45
2024-05-09T22:43:52.000Z,281.42
2024-05-09T22:45:58.000Z,281.37
2024-05-09T22:47:25.000Z,281.35
2024-05-09T22:49:31.000Z,281.29
2024-05-09T22:50:58.000Z,281.28
2024-05-09T22:53:04.000Z,281.25
2024-05-09T22:54:31.000Z,281.21
2024-05-09T22:56:37.000Z,281.18
2024-05-09T22:58:03.000Z,281.15
2024-05-09T23:00:09.000Z,281.15
2024-05-09T23:01:43.000Z,281.14
2024-05-09T23:03:50.000Z,281.11